sensor_id;sensor_type;location;lat;lon;timestamp;temperature;humidity
10889;DHT22;5497;51.388;6.780;2023-05-24T00:09:03;7.50;99.90
10889;DHT22;5497;51.388;6.780;2023-05-24T00:11:30;7.50;99.90
10889;DHT22;5497;51.388;6.780;2023-05-24T00:16:24;7.50;99.90
10889;DHT22;5497;51.388;6.780;2023-05-24T00:38:35;7.40;99.90
10889;DHT22;5497;51.388;6.780;2023-05-24T00:43:29;7.40;99.90
10889;DHT22;5497;51.388;6.780;2023-05-24T00:53:20;7.40;99.90
10889;DHT22;5497;51.388;6.780;2023-05-24T00:58:15;7.30;99.90
10889;DHT22;5497;51.388;6.780;2023-05-24T01:00:42;7.20;99.90
10889;DHT22;5497;51.388;6.780;2023-05-24T01:10:34;7.00;99.90
10889;DHT22;5497;51.388;6.780;2023-05-24T01:13:03;6.90;99.90
10889;DHT22;5497;51.388;6.780;2023-05-24T01:20:29;6.80;99.90
10889;DHT22;5497;51.388;6.780;2023-05-24T01:23:12;6.70;99.90
10889;DHT22;5497;51.388;6.780;2023-05-24T01:25:48;6.70;99.90
10889;DHT22;5497;51.388;6.780;2023-05-24T01:30:44;6.60;99.90
10889;DHT22;5497;51.388;6.780;2023-05-24T01:33:11;6.60;99.90
10889;DHT22;5497;51.388;6.780;2023-05-24T01:38:06;6.50;99.90
10889;DHT22;5497;51.388;6.780;2023-05-24T01:40:34;6.40;99.90
10889;DHT22;5497;51.388;6.780;2023-05-24T01:48:00;6.30;99.90
10889;DHT22;5497;51.388;6.780;2023-05-24T01:50:30;6.20;99.90
10889;DHT22;5497;51.388;6.780;2023-05-24T01:52:57;6.20;99.90
10889;DHT22;5497;51.388;6.780;2023-05-24T01:55:29;6.20;99.90
10889;DHT22;5497;51.388;6.780;2023-05-24T01:58:00;6.10;99.90
10889;DHT22;5497;51.388;6.780;2023-05-24T02:00:28;6.10;99.90
10889;DHT22;5497;51.388;6.780;2023-05-24T02:02:58;6.00;99.90
10889;DHT22;5497;51.388;6.780;2023-05-24T02:05:24;6.00;99.90
10889;DHT22;5497;51.388;6.780;2023-05-24T02:07:51;6.00;99.90
10889;DHT22;5497;51.388;6.780;2023-05-24T02:10:18;5.90;99.90
10889;DHT22;5497;51.388;6.780;2023-05-24T02:12:44;5.90;99.90
10889;DHT22;5497;51.388;6.780;2023-05-24T02:15:11;5.90;99.90
10889;DHT22;5497;51.388;6.780;2023-05-24T02:17:39;5.90;99.90
10889;DHT22;5497;51.388;6.780;2023-05-24T02:20:08;5.80;99.90
10889;DHT22;5497;51.388;6.780;2023-05-24T02:22:37;5.70;99.90
10889;DHT22;5497;51.388;6.780;2023-05-24T02:25:04;5.80;99.90
10889;DHT22;5497;51.388;6.780;2023-05-24T02:27:32;5.70;99.90
10889;DHT22;5497;51.388;6.780;2023-05-24T02:29:59;5.70;99.90
10889;DHT22;5497;51.388;6.780;2023-05-24T02:32:25;5.60;99.90
10889;DHT22;5497;51.388;6.780;2023-05-24T02:34:52;5.60;99.90
10889;DHT22;5497;51.388;6.780;2023-05-24T02:37:20;5.60;99.90
10889;DHT22;5497;51.388;6.780;2023-05-24T02:39:47;5.50;99.90
10889;DHT22;5497;51.388;6.780;2023-05-24T02:42:14;5.50;99.90
10889;DHT22;5497;51.388;6.780;2023-05-24T02:44:40;5.50;99.90
10889;DHT22;5497;51.388;6.780;2023-05-24T02:47:07;5.40;99.90
10889;DHT22;5497;51.388;6.780;2023-05-24T02:49:34;5.40;99.90
10889;DHT22;5497;51.388;6.780;2023-05-24T02:52:01;5.40;99.90
10889;DHT22;5497;51.388;6.780;2023-05-24T02:54:30;5.40;99.90
10889;DHT22;5497;51.388;6.780;2023-05-24T02:56:56;5.50;99.90
10889;DHT22;5497;51.388;6.780;2023-05-24T02:59:23;5.40;99.90
10889;DHT22;5497;51.388;6.780;2023-05-24T03:01:50;5.40;99.90
10889;DHT22;5497;51.388;6.780;2023-05-24T03:04:17;5.40;99.90
10889;DHT22;5497;51.388;6.780;2023-05-24T03:06:44;5.40;99.90
10889;DHT22;5497;51.388;6.780;2023-05-24T03:09:12;5.40;99.90
10889;DHT22;5497;51.388;6.780;2023-05-24T03:11:42;5.40;99.90
10889;DHT22;5497;51.388;6.780;2023-05-24T03:14:08;5.40;99.90
10889;DHT22;5497;51.388;6.780;2023-05-24T03:16:38;5.30;99.90
10889;DHT22;5497;51.388;6.780;2023-05-24T03:19:05;5.30;99.90
10889;DHT22;5497;51.388;6.780;2023-05-24T03:21:31;5.30;99.90
10889;DHT22;5497;51.388;6.780;2023-05-24T03:23:58;5.30;99.90
10889;DHT22;5497;51.388;6.780;2023-05-24T03:26:26;3.20;99.90
10889;DHT22;5497;51.388;6.780;2023-05-24T03:28:54;5.20;99.90
10889;DHT22;5497;51.388;6.780;2023-05-24T03:31:26;5.20;99.90
10889;DHT22;5497;51.388;6.780;2023-05-24T03:33:54;5.20;99.90
10889;DHT22;5497;51.388;6.780;2023-05-24T03:36:21;5.00;99.90
10889;DHT22;5497;51.388;6.780;2023-05-24T03:38:50;5.20;99.90
10889;DHT22;5497;51.388;6.780;2023-05-24T03:41:19;5.20;99.90
10889;DHT22;5497;51.388;6.780;2023-05-24T03:43:47;5.20;99.90
10889;DHT22;5497;51.388;6.780;2023-05-24T03:46:17;5.20;99.90
10889;DHT22;5497;51.388;6.780;2023-05-24T03:48:44;5.30;99.90
10889;DHT22;5497;51.388;6.780;2023-05-24T03:51:11;5.20;99.90
10889;DHT22;5497;51.388;6.780;2023-05-24T03:53:38;5.30;99.90
10889;DHT22;5497;51.388;6.780;2023-05-24T03:56:05;5.30;99.90
10889;DHT22;5497;51.388;6.780;2023-05-24T03:58:32;5.40;99.90
10889;DHT22;5497;51.388;6.780;2023-05-24T04:00:59;5.60;99.90
10889;DHT22;5497;51.388;6.780;2023-05-24T04:03:27;5.60;99.90
10889;DHT22;5497;51.388;6.780;2023-05-24T04:05:54;5.70;99.90
10889;DHT22;5497;51.388;6.780;2023-05-24T04:08:21;5.70;99.90
10889;DHT22;5497;51.388;6.780;2023-05-24T04:10:48;5.80;99.90
10889;DHT22;5497;51.388;6.780;2023-05-24T04:13:15;5.80;99.90
10889;DHT22;5497;51.388;6.780;2023-05-24T04:15:42;5.80;99.90
10889;DHT22;5497;51.388;6.780;2023-05-24T04:18:10;6.00;99.90
10889;DHT22;5497;51.388;6.780;2023-05-24T04:20:38;6.00;99.90
10889;DHT22;5497;51.388;6.780;2023-05-24T04:23:05;6.00;99.90
10889;DHT22;5497;51.388;6.780;2023-05-24T04:25:32;6.10;99.90
10889;DHT22;5497;51.388;6.780;2023-05-24T04:27:59;8.20;99.90
10889;DHT22;5497;51.388;6.780;2023-05-24T04:30:27;6.10;99.90
10889;DHT22;5497;51.388;6.780;2023-05-24T04:32:55;6.30;99.90
10889;DHT22;5497;51.388;6.780;2023-05-24T04:35:22;6.60;99.90
10889;DHT22;5497;51.388;6.780;2023-05-24T04:37:51;6.70;99.90
10889;DHT22;5497;51.388;6.780;2023-05-24T04:40:19;6.90;99.90
10889;DHT22;5497;51.388;6.780;2023-05-24T04:42:47;7.10;99.90
10889;DHT22;5497;51.388;6.780;2023-05-24T04:45:14;7.40;99.90
10889;DHT22;5497;51.388;6.780;2023-05-24T04:47:42;7.50;99.90
10889;DHT22;5497;51.388;6.780;2023-05-24T04:50:09;7.70;99.90
10889;DHT22;5497;51.388;6.780;2023-05-24T04:52:36;7.80;99.90
10889;DHT22;5497;51.388;6.780;2023-05-24T04:55:05;8.00;99.90
10889;DHT22;5497;51.388;6.780;2023-05-24T04:57:32;8.10;99.90
10889;DHT22;5497;51.388;6.780;2023-05-24T05:00:08;8.30;99.90
10889;DHT22;5497;51.388;6.780;2023-05-24T05:02:42;8.50;99.90
10889;DHT22;5497;51.388;6.780;2023-05-24T05:05:10;8.80;99.90
10889;DHT22;5497;51.388;6.780;2023-05-24T05:07:48;9.40;99.90
10889;DHT22;5497;51.388;6.780;2023-05-24T05:10:45;9.40;99.90
10889;DHT22;5497;51.388;6.780;2023-05-24T05:13:22;9.70;99.90
10889;DHT22;5497;51.388;6.780;2023-05-24T05:16:00;10.00;99.90
10889;DHT22;5497;51.388;6.780;2023-05-24T05:21:42;10.40;99.90
10889;DHT22;5497;51.388;6.780;2023-05-24T05:24:15;10.50;99.90
10889;DHT22;5497;51.388;6.780;2023-05-24T05:27:02;10.70;99.90
10889;DHT22;5497;51.388;6.780;2023-05-24T05:29:34;11.00;99.90
10889;DHT22;5497;51.388;6.780;2023-05-24T05:32:13;11.30;99.90
10889;DHT22;5497;51.388;6.780;2023-05-24T05:34:56;11.50;99.90
10889;DHT22;5497;51.388;6.780;2023-05-24T05:37:31;12.20;99.90
10889;DHT22;5497;51.388;6.780;2023-05-24T05:40:07;12.50;99.90
10889;DHT22;5497;51.388;6.780;2023-05-24T05:45:44;12.60;99.90
10889;DHT22;5497;51.388;6.780;2023-05-24T05:48:16;12.30;99.90
10889;DHT22;5497;51.388;6.780;2023-05-24T05:51:05;12.90;99.90
10889;DHT22;5497;51.388;6.780;2023-05-24T05:53:41;13.00;99.90
10889;DHT22;5497;51.388;6.780;2023-05-24T05:56:13;13.10;99.90
10889;DHT22;5497;51.388;6.780;2023-05-24T05:58:40;13.30;99.90
10889;DHT22;5497;51.388;6.780;2023-05-24T06:01:08;13.40;99.90
10889;DHT22;5497;51.388;6.780;2023-05-24T06:03:35;13.50;99.90
10889;DHT22;5497;51.388;6.780;2023-05-24T06:06:02;13.60;99.90
10889;DHT22;5497;51.388;6.780;2023-05-24T06:08:29;13.70;99.90
10889;DHT22;5497;51.388;6.780;2023-05-24T06:10:59;13.80;99.90
10889;DHT22;5497;51.388;6.780;2023-05-24T06:13:26;13.70;99.90
10889;DHT22;5497;51.388;6.780;2023-05-24T06:15:53;13.80;99.90
10889;DHT22;5497;51.388;6.780;2023-05-24T06:18:22;13.80;99.90
10889;DHT22;5497;51.388;6.780;2023-05-24T06:20:50;13.80;99.90
10889;DHT22;5497;51.388;6.780;2023-05-24T06:23:17;14.00;99.90
10889;DHT22;5497;51.388;6.780;2023-05-24T06:25:43;13.50;99.90
10889;DHT22;5497;51.388;6.780;2023-05-24T06:28:11;13.60;99.90
10889;DHT22;5497;51.388;6.780;2023-05-24T06:30:38;13.60;99.90
10889;DHT22;5497;51.388;6.780;2023-05-24T06:33:05;14.40;99.90
10889;DHT22;5497;51.388;6.780;2023-05-24T06:35:33;15.30;99.90
10889;DHT22;5497;51.388;6.780;2023-05-24T06:38:00;16.00;99.90
10889;DHT22;5497;51.388;6.780;2023-05-24T06:40:27;16.00;99.90
10889;DHT22;5497;51.388;6.780;2023-05-24T06:42:57;17.60;99.90
10889;DHT22;5497;51.388;6.780;2023-05-24T06:45:24;15.60;99.90
10889;DHT22;5497;51.388;6.780;2023-05-24T06:47:51;15.60;99.90
10889;DHT22;5497;51.388;6.780;2023-05-24T06:50:18;15.60;99.90
10889;DHT22;5497;51.388;6.780;2023-05-24T06:52:47;16.90;99.90
10889;DHT22;5497;51.388;6.780;2023-05-24T06:55:14;16.90;99.90
10889;DHT22;5497;51.388;6.780;2023-05-24T06:57:41;16.70;99.90
10889;DHT22;5497;51.388;6.780;2023-05-24T07:00:08;16.60;99.90
10889;DHT22;5497;51.388;6.780;2023-05-24T07:02:37;18.30;99.90
10889;DHT22;5497;51.388;6.780;2023-05-24T07:05:04;16.20;99.90
10889;DHT22;5497;51.388;6.780;2023-05-24T07:07:36;15.70;99.90
10889;DHT22;5497;51.388;6.780;2023-05-24T07:10:05;15.40;99.90
10889;DHT22;5497;51.388;6.780;2023-05-24T07:12:33;15.30;99.90
10889;DHT22;5497;51.388;6.780;2023-05-24T07:15:00;15.20;99.90
10889;DHT22;5497;51.388;6.780;2023-05-24T07:17:26;15.20;99.90
10889;DHT22;5497;51.388;6.780;2023-05-24T07:19:53;15.20;99.90
10889;DHT22;5497;51.388;6.780;2023-05-24T07:22:21;15.30;99.90
10889;DHT22;5497;51.388;6.780;2023-05-24T07:24:49;15.50;99.90
10889;DHT22;5497;51.388;6.780;2023-05-24T07:27:18;15.70;99.90
10889;DHT22;5497;51.388;6.780;2023-05-24T07:29:48;15.70;99.90
10889;DHT22;5497;51.388;6.780;2023-05-24T07:32:15;15.70;99.90
10889;DHT22;5497;51.388;6.780;2023-05-24T07:34:42;15.80;99.90
10889;DHT22;5497;51.388;6.780;2023-05-24T07:37:09;16.00;99.90
10889;DHT22;5497;51.388;6.780;2023-05-24T07:39:36;15.90;99.90
10889;DHT22;5497;51.388;6.780;2023-05-24T07:42:03;15.60;99.90
10889;DHT22;5497;51.388;6.780;2023-05-24T07:44:32;15.60;99.90
10889;DHT22;5497;51.388;6.780;2023-05-24T07:46:59;15.60;99.90
10889;DHT22;5497;51.388;6.780;2023-05-24T07:49:26;15.70;99.90
10889;DHT22;5497;51.388;6.780;2023-05-24T07:51:53;15.80;99.90
10889;DHT22;5497;51.388;6.780;2023-05-24T07:54:22;15.80;99.90
10889;DHT22;5497;51.388;6.780;2023-05-24T07:56:49;15.90;99.90
10889;DHT22;5497;51.388;6.780;2023-05-24T07:59:16;16.10;99.90
10889;DHT22;5497;51.388;6.780;2023-05-24T08:01:45;16.30;99.90
10889;DHT22;5497;51.388;6.780;2023-05-24T08:04:12;16.60;99.90
10889;DHT22;5497;51.388;6.780;2023-05-24T08:06:39;17.00;99.90
10889;DHT22;5497;51.388;6.780;2023-05-24T08:09:06;17.30;99.90
10889;DHT22;5497;51.388;6.780;2023-05-24T08:11:33;17.60;99.90
10889;DHT22;5497;51.388;6.780;2023-05-24T08:14:00;17.70;99.90
10889;DHT22;5497;51.388;6.780;2023-05-24T08:16:27;17.70;99.90
10889;DHT22;5497;51.388;6.780;2023-05-24T08:18:55;17.70;99.90
10889;DHT22;5497;51.388;6.780;2023-05-24T08:21:22;17.70;99.90
10889;DHT22;5497;51.388;6.780;2023-05-24T08:23:49;17.50;99.90
10889;DHT22;5497;51.388;6.780;2023-05-24T08:26:16;18.10;99.90
10889;DHT22;5497;51.388;6.780;2023-05-24T08:28:45;18.60;99.90
10889;DHT22;5497;51.388;6.780;2023-05-24T08:31:12;18.70;99.90
10889;DHT22;5497;51.388;6.780;2023-05-24T08:33:39;18.70;99.90
10889;DHT22;5497;51.388;6.780;2023-05-24T08:36:08;18.50;99.90
10889;DHT22;5497;51.388;6.780;2023-05-24T08:38:35;18.40;99.90
10889;DHT22;5497;51.388;6.780;2023-05-24T08:41:03;18.30;99.90
10889;DHT22;5497;51.388;6.780;2023-05-24T08:43:31;18.50;99.90
10889;DHT22;5497;51.388;6.780;2023-05-24T08:45:58;18.70;99.90
10889;DHT22;5497;51.388;6.780;2023-05-24T08:48:29;18.90;99.90
10889;DHT22;5497;51.388;6.780;2023-05-24T08:50:56;19.00;99.90
10889;DHT22;5497;51.388;6.780;2023-05-24T08:53:25;18.80;99.90
10889;DHT22;5497;51.388;6.780;2023-05-24T08:55:52;18.60;99.90
10889;DHT22;5497;51.388;6.780;2023-05-24T08:58:20;18.40;99.90
10889;DHT22;5497;51.388;6.780;2023-05-24T09:00:47;18.40;99.90
10889;DHT22;5497;51.388;6.780;2023-05-24T09:03:16;18.60;99.90
10889;DHT22;5497;51.388;6.780;2023-05-24T09:05:44;18.90;99.90
10889;DHT22;5497;51.388;6.780;2023-05-24T09:08:11;19.30;99.90
10889;DHT22;5497;51.388;6.780;2023-05-24T09:10:43;19.30;99.90
10889;DHT22;5497;51.388;6.780;2023-05-24T09:13:11;19.40;99.90
10889;DHT22;5497;51.388;6.780;2023-05-24T09:15:38;19.40;99.90
10889;DHT22;5497;51.388;6.780;2023-05-24T09:18:05;20.10;99.90
10889;DHT22;5497;51.388;6.780;2023-05-24T09:20:33;20.40;99.90
10889;DHT22;5497;51.388;6.780;2023-05-24T09:23:00;21.40;99.90
10889;DHT22;5497;51.388;6.780;2023-05-24T09:25:28;21.30;99.90
10889;DHT22;5497;51.388;6.780;2023-05-24T09:27:57;21.20;99.90
10889;DHT22;5497;51.388;6.780;2023-05-24T09:30:24;21.10;99.90
10889;DHT22;5497;51.388;6.780;2023-05-24T09:32:55;20.60;99.90
10889;DHT22;5497;51.388;6.780;2023-05-24T09:35:22;20.20;99.90
10889;DHT22;5497;51.388;6.780;2023-05-24T09:37:52;19.60;99.90
10889;DHT22;5497;51.388;6.780;2023-05-24T09:40:19;19.30;99.90
10889;DHT22;5497;51.388;6.780;2023-05-24T09:42:47;19.30;99.90
10889;DHT22;5497;51.388;6.780;2023-05-24T09:45:17;19.30;99.90
10889;DHT22;5497;51.388;6.780;2023-05-24T09:47:44;20.40;99.90
10889;DHT22;5497;51.388;6.780;2023-05-24T09:50:11;21.80;99.90
10889;DHT22;5497;51.388;6.780;2023-05-24T09:52:38;22.40;99.90
10889;DHT22;5497;51.388;6.780;2023-05-24T09:55:12;22.80;99.90
10889;DHT22;5497;51.388;6.780;2023-05-24T09:57:39;23.20;99.90
10889;DHT22;5497;51.388;6.780;2023-05-24T10:00:08;23.60;99.90
10889;DHT22;5497;51.388;6.780;2023-05-24T10:02:43;23.60;99.90
10889;DHT22;5497;51.388;6.780;2023-05-24T10:05:10;23.60;99.90
10889;DHT22;5497;51.388;6.780;2023-05-24T10:07:38;23.10;99.90
10889;DHT22;5497;51.388;6.780;2023-05-24T10:10:05;22.80;99.90
10889;DHT22;5497;51.388;6.780;2023-05-24T10:12:33;22.30;99.90
10889;DHT22;5497;51.388;6.780;2023-05-24T10:15:01;20.70;99.90
10889;DHT22;5497;51.388;6.780;2023-05-24T10:17:28;20.30;99.90
10889;DHT22;5497;51.388;6.780;2023-05-24T10:19:57;20.30;99.90
10889;DHT22;5497;51.388;6.780;2023-05-24T10:22:25;20.10;99.90
10889;DHT22;5497;51.388;6.780;2023-05-24T10:24:52;19.80;99.90
10889;DHT22;5497;51.388;6.780;2023-05-24T10:27:25;19.50;99.90
10889;DHT22;5497;51.388;6.780;2023-05-24T10:29:53;19.50;99.90
10889;DHT22;5497;51.388;6.780;2023-05-24T10:32:24;19.40;99.90
10889;DHT22;5497;51.388;6.780;2023-05-24T10:34:57;19.40;99.90
10889;DHT22;5497;51.388;6.780;2023-05-24T10:37:25;19.50;99.90
10889;DHT22;5497;51.388;6.780;2023-05-24T10:39:52;19.50;99.90
10889;DHT22;5497;51.388;6.780;2023-05-24T10:42:19;19.50;99.90
10889;DHT22;5497;51.388;6.780;2023-05-24T10:44:46;20.10;99.90
10889;DHT22;5497;51.388;6.780;2023-05-24T10:47:13;20.80;99.90
10889;DHT22;5497;51.388;6.780;2023-05-24T10:49:46;21.40;99.90
10889;DHT22;5497;51.388;6.780;2023-05-24T10:52:15;21.60;99.90
10889;DHT22;5497;51.388;6.780;2023-05-24T10:57:24;21.90;99.90
10889;DHT22;5497;51.388;6.780;2023-05-24T10:59:53;21.90;99.90
10889;DHT22;5497;51.388;6.780;2023-05-24T11:02:23;21.60;99.90
10889;DHT22;5497;51.388;6.780;2023-05-24T11:04:55;21.40;99.90
10889;DHT22;5497;51.388;6.780;2023-05-24T11:07:26;20.20;99.90
10889;DHT22;5497;51.388;6.780;2023-05-24T11:09:54;19.70;99.90
10889;DHT22;5497;51.388;6.780;2023-05-24T11:12:24;19.60;99.90
10889;DHT22;5497;51.388;6.780;2023-05-24T11:14:57;19.10;99.90
10889;DHT22;5497;51.388;6.780;2023-05-24T11:17:27;18.90;99.90
10889;DHT22;5497;51.388;6.780;2023-05-24T11:19:55;18.50;99.90
10889;DHT22;5497;51.388;6.780;2023-05-24T11:22:27;18.10;99.90
10889;DHT22;5497;51.388;6.780;2023-05-24T11:25:05;18.00;99.90
10889;DHT22;5497;51.388;6.780;2023-05-24T11:27:40;17.50;99.90
10889;DHT22;5497;51.388;6.780;2023-05-24T11:30:08;17.50;99.90
10889;DHT22;5497;51.388;6.780;2023-05-24T11:32:50;17.40;99.90
10889;DHT22;5497;51.388;6.780;2023-05-24T11:35:17;17.30;99.90
10889;DHT22;5497;51.388;6.780;2023-05-24T11:37:48;17.30;99.90
10889;DHT22;5497;51.388;6.780;2023-05-24T11:40:15;17.40;99.90
10889;DHT22;5497;51.388;6.780;2023-05-24T11:42:44;17.90;99.90
10889;DHT22;5497;51.388;6.780;2023-05-24T11:45:12;17.90;99.90
10889;DHT22;5497;51.388;6.780;2023-05-24T11:47:40;18.40;99.90
10889;DHT22;5497;51.388;6.780;2023-05-24T11:50:07;18.30;99.90
10889;DHT22;5497;51.388;6.780;2023-05-24T11:52:37;18.20;99.90
10889;DHT22;5497;51.388;6.780;2023-05-24T11:55:06;18.20;99.90
10889;DHT22;5497;51.388;6.780;2023-05-24T11:57:35;18.50;99.90
10889;DHT22;5497;51.388;6.780;2023-05-24T12:00:05;18.90;99.90
10889;DHT22;5497;51.388;6.780;2023-05-24T12:02:35;19.20;99.90
10889;DHT22;5497;51.388;6.780;2023-05-24T12:05:08;19.30;99.90
10889;DHT22;5497;51.388;6.780;2023-05-24T12:07:36;19.70;99.90
10889;DHT22;5497;51.388;6.780;2023-05-24T12:10:06;19.80;99.90
10889;DHT22;5497;51.388;6.780;2023-05-24T12:12:35;20.30;99.90
10889;DHT22;5497;51.388;6.780;2023-05-24T12:15:06;20.70;99.90
10889;DHT22;5497;51.388;6.780;2023-05-24T12:17:33;21.10;99.90
10889;DHT22;5497;51.388;6.780;2023-05-24T12:20:01;21.40;99.90
10889;DHT22;5497;51.388;6.780;2023-05-24T12:22:28;21.60;99.90
10889;DHT22;5497;51.388;6.780;2023-05-24T12:24:58;22.00;99.90
10889;DHT22;5497;51.388;6.780;2023-05-24T12:27:27;22.20;99.90
10889;DHT22;5497;51.388;6.780;2023-05-24T12:29:56;22.20;99.90
10889;DHT22;5497;51.388;6.780;2023-05-24T12:32:31;22.40;99.90
10889;DHT22;5497;51.388;6.780;2023-05-24T12:34:58;22.40;99.90
10889;DHT22;5497;51.388;6.780;2023-05-24T12:37:25;23.20;99.90
10889;DHT22;5497;51.388;6.780;2023-05-24T12:39:56;23.30;99.90
10889;DHT22;5497;51.388;6.780;2023-05-24T12:42:32;22.90;99.90
10889;DHT22;5497;51.388;6.780;2023-05-24T12:45:01;22.90;99.90
10889;DHT22;5497;51.388;6.780;2023-05-24T12:47:27;23.50;99.90
10889;DHT22;5497;51.388;6.780;2023-05-24T12:49:54;23.50;99.90
10889;DHT22;5497;51.388;6.780;2023-05-24T12:52:21;23.60;99.90
10889;DHT22;5497;51.388;6.780;2023-05-24T12:54:48;23.70;99.90
10889;DHT22;5497;51.388;6.780;2023-05-24T12:57:16;23.70;99.90
10889;DHT22;5497;51.388;6.780;2023-05-24T12:59:44;23.00;99.90
10889;DHT22;5497;51.388;6.780;2023-05-24T13:02:12;22.40;99.90
10889;DHT22;5497;51.388;6.780;2023-05-24T13:04:39;22.40;99.90
10889;DHT22;5497;51.388;6.780;2023-05-24T13:07:09;22.40;99.90
10889;DHT22;5497;51.388;6.780;2023-05-24T13:09:36;22.40;99.90
10889;DHT22;5497;51.388;6.780;2023-05-24T13:12:03;22.10;99.90
10889;DHT22;5497;51.388;6.780;2023-05-24T13:14:30;22.00;99.90
10889;DHT22;5497;51.388;6.780;2023-05-24T13:16:59;22.20;99.90
10889;DHT22;5497;51.388;6.780;2023-05-24T13:19:26;22.50;99.90
10889;DHT22;5497;51.388;6.780;2023-05-24T13:21:56;22.90;99.90
10889;DHT22;5497;51.388;6.780;2023-05-24T13:24:23;22.90;99.90
10889;DHT22;5497;51.388;6.780;2023-05-24T13:26:50;22.90;99.90
10889;DHT22;5497;51.388;6.780;2023-05-24T13:29:17;22.80;99.90
10889;DHT22;5497;51.388;6.780;2023-05-24T13:31:44;22.50;99.90
10889;DHT22;5497;51.388;6.780;2023-05-24T13:34:12;22.20;99.90
10889;DHT22;5497;51.388;6.780;2023-05-24T13:36:40;22.10;99.90
10889;DHT22;5497;51.388;6.780;2023-05-24T13:39:07;21.60;99.90
10889;DHT22;5497;51.388;6.780;2023-05-24T13:41:35;21.30;99.90
10889;DHT22;5497;51.388;6.780;2023-05-24T13:44:03;20.80;99.90
10889;DHT22;5497;51.388;6.780;2023-05-24T13:46:30;21.00;99.90
10889;DHT22;5497;51.388;6.780;2023-05-24T13:48:57;21.50;99.90
10889;DHT22;5497;51.388;6.780;2023-05-24T13:51:25;21.60;99.90
10889;DHT22;5497;51.388;6.780;2023-05-24T13:53:52;21.40;99.90
10889;DHT22;5497;51.388;6.780;2023-05-24T13:56:19;20.90;99.60
10889;DHT22;5497;51.388;6.780;2023-05-24T13:58:48;20.50;99.90
10889;DHT22;5497;51.388;6.780;2023-05-24T14:01:15;20.40;99.90
10889;DHT22;5497;51.388;6.780;2023-05-24T14:03:42;20.50;99.90
10889;DHT22;5497;51.388;6.780;2023-05-24T14:06:09;20.50;99.90
10889;DHT22;5497;51.388;6.780;2023-05-24T14:08:38;20.50;99.90
10889;DHT22;5497;51.388;6.780;2023-05-24T14:11:05;20.60;99.90
10889;DHT22;5497;51.388;6.780;2023-05-24T14:13:32;20.70;99.90
10889;DHT22;5497;51.388;6.780;2023-05-24T14:15:59;20.70;99.90
10889;DHT22;5497;51.388;6.780;2023-05-24T14:18:26;20.40;99.90
10889;DHT22;5497;51.388;6.780;2023-05-24T14:20:52;20.40;99.90
10889;DHT22;5497;51.388;6.780;2023-05-24T14:23:19;19.90;99.90
10889;DHT22;5497;51.388;6.780;2023-05-24T14:25:48;19.80;99.90
10889;DHT22;5497;51.388;6.780;2023-05-24T14:28:16;19.70;99.90
10889;DHT22;5497;51.388;6.780;2023-05-24T14:30:44;19.60;99.90
10889;DHT22;5497;51.388;6.780;2023-05-24T14:33:11;18.90;99.90
10889;DHT22;5497;51.388;6.780;2023-05-24T14:35:38;18.60;99.90
10889;DHT22;5497;51.388;6.780;2023-05-24T14:38:06;18.30;99.90
10889;DHT22;5497;51.388;6.780;2023-05-24T14:40:33;18.10;99.90
10889;DHT22;5497;51.388;6.780;2023-05-24T14:43:02;17.90;99.90
10889;DHT22;5497;51.388;6.780;2023-05-24T14:45:30;17.80;99.90
10889;DHT22;5497;51.388;6.780;2023-05-24T14:48:00;17.80;99.90
10889;DHT22;5497;51.388;6.780;2023-05-24T14:50:27;17.80;99.90
10889;DHT22;5497;51.388;6.780;2023-05-24T14:52:56;17.80;99.90
10889;DHT22;5497;51.388;6.780;2023-05-24T14:55:24;17.80;99.90
10889;DHT22;5497;51.388;6.780;2023-05-24T14:57:51;17.80;99.90
10889;DHT22;5497;51.388;6.780;2023-05-24T15:00:22;17.80;99.90
10889;DHT22;5497;51.388;6.780;2023-05-24T15:02:49;17.60;99.90
10889;DHT22;5497;51.388;6.780;2023-05-24T15:05:16;17.40;99.90
10889;DHT22;5497;51.388;6.780;2023-05-24T15:07:42;17.40;99.90
10889;DHT22;5497;51.388;6.780;2023-05-24T15:10:10;17.40;99.90
10889;DHT22;5497;51.388;6.780;2023-05-24T15:12:37;17.20;99.90
10889;DHT22;5497;51.388;6.780;2023-05-24T15:15:04;17.10;99.90
10889;DHT22;5497;51.388;6.780;2023-05-24T15:22:28;16.90;99.90
10889;DHT22;5497;51.388;6.780;2023-05-24T15:27:22;17.20;99.90
10889;DHT22;5497;51.388;6.780;2023-05-24T15:29:49;17.40;99.90
10889;DHT22;5497;51.388;6.780;2023-05-24T15:34:46;17.60;99.90
10889;DHT22;5497;51.388;6.780;2023-05-24T15:37:18;17.60;99.90
10889;DHT22;5497;51.388;6.780;2023-05-24T15:39:51;17.80;99.90
10889;DHT22;5497;51.388;6.780;2023-05-24T15:42:19;20.60;99.90
10889;DHT22;5497;51.388;6.780;2023-05-24T15:44:47;17.90;99.90
10889;DHT22;5497;51.388;6.780;2023-05-24T15:47:14;18.30;99.90
10889;DHT22;5497;51.388;6.780;2023-05-24T15:49:42;18.70;99.90
10889;DHT22;5497;51.388;6.780;2023-05-24T15:52:10;18.10;99.90
10889;DHT22;5497;51.388;6.780;2023-05-24T15:54:37;18.10;99.90
10889;DHT22;5497;51.388;6.780;2023-05-24T15:59:32;18.10;99.90
10889;DHT22;5497;51.388;6.780;2023-05-24T16:02:01;18.10;99.90
10889;DHT22;5497;51.388;6.780;2023-05-24T16:04:28;18.20;99.90
10889;DHT22;5497;51.388;6.780;2023-05-24T16:06:56;18.10;99.90
10889;DHT22;5497;51.388;6.780;2023-05-24T16:09:23;18.10;99.90
10889;DHT22;5497;51.388;6.780;2023-05-24T16:11:50;18.20;99.90
